Time;durP1;ratioP1;P1;durP2;ratioP2;P2;SDS_P1;SDS_P2;PMS_P1;PMS_P2;Temp;Humidity;BMP_temperature;BMP_pressure;BME280_temperature;BME280_humidity;BME280_pressure;Samples;Min_cycle;Max_cycle;Signal;HPM_P1;HPM_P2
2021/09/05 03:13:37;;;;;;;;;;;;;;;6.27;98.40;99769.56;4950438;28;19933;-82
2021/09/05 03:16:02;;;;;;;;;;;;;;;6.28;98.40;99766.00;4946569;28;19926;-82
2021/09/05 03:18:27;;;;;;;;;;;;;;;6.24;98.72;99774.91;4963682;28;19918;-83
2021/09/05 03:20:52;;;;;;;;;;;;;;;6.00;95.94;99771.97;4963958;28;19981;-83
2021/09/05 03:23:18;;;;;;;;;;;;;;;5.97;95.67;99769.41;4964302;28;19925;-83
2021/09/05 03:25:43;;;;;;;;;;;;;;;6.16;100.00;99772.47;4964120;28;19963;-83
2021/09/05 03:28:09;;;;;;;;;;;;;;;6.47;100.00;99769.03;4962312;28;19918;-82
2021/09/05 03:30:34;;;;;;;;;;;;;;;6.49;100.00;99775.16;4963899;28;20009;-81
2021/09/05 03:32:59;;;;;;;;;;;;;;;6.51;100.00;99773.31;4964053;28;19925;-81
2021/09/05 03:35:24;;;;;;;;;;;;;;;6.52;100.00;99768.91;4963916;28;19930;-82
2021/09/05 03:37:50;;;;;;;;;;;;;;;6.55;100.00;99776.72;4963580;28;19944;-83
2021/09/05 03:40:15;;;;;;;;;;;;;;;6.64;100.00;99780.91;4963463;28;20423;-82
2021/09/05 03:42:40;;;;;;;;;;;;;;;6.63;100.00;99776.53;4963049;28;20416;-81
2021/09/05 03:45:06;;;;;;;;;;;;;;;6.54;100.00;99782.88;4963875;28;19922;-82
2021/09/05 03:47:31;;;;;;;;;;;;;;;6.44;100.00;99774.38;4962192;28;20437;-82
2021/09/05 03:49:56;;;;;;;;;;;;;;;6.64;100.00;99773.88;4963554;28;20373;-82
2021/09/05 03:52:21;;;;;;;;;;;;;;;6.65;100.00;99783.50;4962606;28;19918;-81
2021/09/05 03:54:47;;;;;;;;;;;;;;;6.77;100.00;99784.06;4963657;28;19977;-80
2021/09/05 03:57:12;;;;;;;;;;;;;;;6.72;100.00;99787.69;4962701;28;20266;-81
2021/09/05 03:59:37;;;;;;;;;;;;;;;6.75;100.00;99780.59;4963685;28;20034;-81
2021/09/05 04:02:02;;;;;;;;;;;;;;;6.83;100.00;99779.50;4944149;28;19918;-82
2021/09/05 04:04:28;;;;;;;;;;;;;;;6.76;100.00;99782.34;4962282;28;19918;-82
2021/09/05 04:07:02;;;;;;;;;;;;;;;6.76;100.00;99783.19;4963933;28;19918;-82
2021/09/05 04:12:12;;;;;;;;;;;;;;;7.24;100.00;99777.47;4962447;28;20014;-82
2021/09/05 04:14:37;;;;;;;;;;;;;;;7.58;100.00;99784.34;4946120;28;20382;-81
2021/09/05 04:17:03;;;;;;;;;;;;;;;7.34;100.00;99785.97;4945793;28;19918;-79
2021/09/05 04:19:28;;;;;;;;;;;;;;;7.23;100.00;99786.25;4963209;28;19922;-81
2021/09/05 04:21:53;;;;;;;;;;;;;;;6.95;100.00;99787.97;4962168;28;19918;-81
2021/09/05 04:24:18;;;;;;;;;;;;;;;6.86;100.00;99789.06;4963201;28;19922;-80
2021/09/05 04:26:45;;;;;;;;;;;;;;;6.72;100.00;99786.81;4963610;28;19919;-81
2021/09/05 04:29:10;;;;;;;;;;;;;;;6.69;100.00;99787.75;4966934;28;19918;-80
2021/09/05 04:31:36;;;;;;;;;;;;;;;6.62;100.00;99791.47;4967170;28;19922;-81
2021/09/05 04:34:01;;;;;;;;;;;;;;;6.55;100.00;99792.53;4949426;28;19929;-80
2021/09/05 04:36:26;;;;;;;;;;;;;;;6.51;100.00;99790.88;4966801;28;19929;-81
2021/09/05 04:38:51;;;;;;;;;;;;;;;6.46;100.00;99795.41;4966728;28;20028;-81
2021/09/05 04:41:17;;;;;;;;;;;;;;;6.35;100.00;99793.91;4965745;28;19929;-81
2021/09/05 04:43:42;;;;;;;;;;;;;;;6.36;100.00;99800.88;4966666;28;19961;-81
2021/09/05 04:46:07;;;;;;;;;;;;;;;6.28;100.00;99810.75;4966486;28;19929;-80
2021/09/05 04:48:32;;;;;;;;;;;;;;;6.22;100.00;99812.66;4966749;28;20277;-81
2021/09/05 04:50:58;;;;;;;;;;;;;;;6.23;100.00;99815.28;4967148;28;19922;-81
2021/09/05 04:53:23;;;;;;;;;;;;;;;6.09;100.00;99822.63;4966565;28;20373;-82
2021/09/05 13:01:50;;;;;;;;;;;;;;;6.70;100.00;99884.31;4952581;28;19933;-83
2021/09/05 13:04:15;;;;;;;;;;;;;;;6.83;100.00;99895.38;4980793;28;20026;-83
2021/09/05 13:06:40;;;;;;;;;;;;;;;6.71;100.00;99891.28;4948796;28;19974;-83
2021/09/05 13:09:06;;;;;;;;;;;;;;;6.90;100.00;99894.31;4948842;28;19926;-83
2021/09/05 13:11:31;;;;;;;;;;;;;;;6.70;99.97;99891.31;4966461;28;19918;-83
2021/09/05 13:13:57;;;;;;;;;;;;;;;6.89;100.00;99892.59;4964730;28;19926;-83
2021/09/05 13:16:22;;;;;;;;;;;;;;;7.12;100.00;99890.25;4949202;28;20373;-83
2021/09/05 13:18:48;;;;;;;;;;;;;;;6.93;100.00;99880.19;4965904;28;20008;-83
2021/09/05 13:21:14;;;;;;;;;;;;;;;6.91;100.00;99888.16;4965192;28;20046;-83
2021/09/05 13:23:43;;;;;;;;;;;;;;;6.98;100.00;99886.19;4965915;28;19918;-83
2021/09/05 13:26:09;;;;;;;;;;;;;;;6.92;100.00;99889.00;4948355;28;19963;-83
2021/09/05 13:28:34;;;;;;;;;;;;;;;7.06;100.00;99878.97;4964813;28;19973;-83
2021/09/05 13:31:00;;;;;;;;;;;;;;;7.18;100.00;99884.78;4965973;28;20298;-83
2021/09/05 13:33:25;;;;;;;;;;;;;;;7.02;100.00;99873.81;4965614;28;19972;-83
2021/09/05 13:35:50;;;;;;;;;;;;;;;7.07;100.00;99871.94;4965950;28;19989;-83
2021/09/05 13:38:16;;;;;;;;;;;;;;;6.88;99.82;99882.09;4965791;28;19926;-83
2021/09/05 13:40:42;;;;;;;;;;;;;;;7.02;100.00;99874.69;4966128;28;20336;-83
2021/09/05 13:43:07;;;;;;;;;;;;;;;6.90;100.00;99870.59;4965677;28;20013;-83
2021/09/05 13:45:32;;;;;;;;;;;;;;;6.93;100.00;99872.28;4964780;28;20000;-83
2021/09/05 13:47:59;;;;;;;;;;;;;;;6.83;100.00;99873.44;4965081;28;20206;-83
2021/09/05 13:50:25;;;;;;;;;;;;;;;6.85;100.00;99872.50;4965367;28;20374;-83
2021/09/05 13:52:50;;;;;;;;;;;;;;;6.88;100.00;99864.50;4965295;28;19921;-83
2021/09/05 13:55:15;;;;;;;;;;;;;;;6.96;99.56;99864.31;4948423;28;20008;-83
2021/09/05 13:57:41;;;;;;;;;;;;;;;6.77;98.91;99869.19;4964836;28;19977;-83
2021/09/05 14:00:06;;;;;;;;;;;;;;;6.78;99.70;99864.78;4962475;28;20013;-83
2021/09/05 14:02:32;;;;;;;;;;;;;;;6.78;99.88;99859.53;4947818;28;20376;-83
2021/09/05 14:04:57;;;;;;;;;;;;;;;6.82;99.92;99871.72;4948032;28;19922;-83
2021/09/05 14:07:23;;;;;;;;;;;;;;;6.80;99.93;99861.22;4947888;28;20311;-83
2021/09/05 14:09:48;;;;;;;;;;;;;;;6.85;100.00;99861.09;4947615;28;20405;-83
2021/09/05 14:12:13;;;;;;;;;;;;;;;6.81;100.00;99856.81;4964915;28;19922;-83
2021/09/05 14:14:39;;;;;;;;;;;;;;;6.72;100.00;99861.41;4963448;28;19992;-83
2021/09/05 14:17:05;;;;;;;;;;;;;;;6.79;100.00;99856.00;4947422;28;19929;-83
2021/09/05 14:19:30;;;;;;;;;;;;;;;6.85;100.00;99856.69;4965418;28;19922;-83
2021/09/05 14:21:55;;;;;;;;;;;;;;;6.80;100.00;99857.72;4964864;28;19968;-83
2021/09/05 14:24:21;;;;;;;;;;;;;;;6.83;100.00;99862.88;4965240;28;19960;-83
2021/09/05 14:27:00;;;;;;;;;;;;;;;6.99;99.01;99864.25;4964660;28;19961;-83
2021/09/05 14:29:40;;;;;;;;;;;;;;;6.88;99.81;99871.56;4945847;28;19923;-83
2021/09/05 14:32:13;;;;;;;;;;;;;;;6.96;98.88;99859.03;4964680;28;19919;-83
2021/09/05 14:48:21;;;;;;;;;;;;;;;6.85;100.00;99871.63;4964177;28;19974;-83
2021/09/05 14:56:14;;;;;;;;;;;;;;;6.92;99.29;99867.91;4964111;28;19945;-83
2021/09/05 14:58:48;;;;;;;;;;;;;;;6.95;98.09;99870.47;4963262;28;19918;-82
2021/09/05 15:01:16;;;;;;;;;;;;;;;6.86;98.08;99879.50;4963414;28;19926;-82
2021/09/05 15:03:56;;;;;;;;;;;;;;;7.02;100.00;99873.81;4963109;28;19930;-82
2021/09/05 15:11:46;;;;;;;;;;;;;;;6.92;99.91;99873.19;4963770;28;19929;-83
2021/09/05 15:14:11;;;;;;;;;;;;;;;6.88;99.98;99871.56;4961633;28;20297;-82
2021/09/05 15:16:38;;;;;;;;;;;;;;;6.86;100.00;99868.06;4963816;28;19922;-82
2021/09/05 15:19:04;;;;;;;;;;;;;;;6.89;100.00;99873.28;4962889;28;19977;-82
2021/09/05 15:21:37;;;;;;;;;;;;;;;6.89;100.00;99871.53;4964098;28;20396;-82
2021/09/05 15:24:05;;;;;;;;;;;;;;;6.88;100.00;99868.94;4962637;28;19918;-82
2021/09/05 15:26:31;;;;;;;;;;;;;;;6.95;100.00;99874.88;4963976;28;19925;-82
2021/09/05 15:29:09;;;;;;;;;;;;;;;6.94;100.00;99873.16;4962553;28;19973;-82
2021/09/05 15:34:40;;;;;;;;;;;;;;;6.98;100.00;99864.28;4963994;28;19918;-82
2021/09/05 15:56:14;;;;;;;;;;;;;;;6.92;98.40;99857.38;4963723;28;19993;-83
2021/09/05 15:58:45;;;;;;;;;;;;;;;6.93;97.62;99864.41;4962125;28;19922;-83
2021/09/05 16:01:31;;;;;;;;;;;;;;;6.85;98.33;99856.69;4962566;28;19973;-83
2021/09/05 16:16:48;;;;;;;;;;;;;;;6.96;98.90;99861.69;4963559;28;19929;-83
2021/09/05 16:19:16;;;;;;;;;;;;;;;6.84;99.16;99864.63;4945942;28;19918;-83
2021/09/05 16:21:41;;;;;;;;;;;;;;;6.83;99.42;99865.53;4964724;28;19918;-83
2021/09/05 16:24:07;;;;;;;;;;;;;;;6.85;99.38;99866.38;4966803;28;19919;-84
2021/09/05 16:26:32;;;;;;;;;;;;;;;6.77;98.96;99869.19;4949651;28;19921;-83
2021/09/05 16:29:01;;;;;;;;;;;;;;;6.82;99.15;99866.44;4966055;28;20448;-83
2021/09/05 16:31:28;;;;;;;;;;;;;;;6.79;99.38;99862.13;4966636;28;19929;-83
2021/09/05 16:33:57;;;;;;;;;;;;;;;6.84;98.91;99865.50;4949716;28;19918;-83
2021/09/05 16:36:38;;;;;;;;;;;;;;;6.87;98.99;99864.56;4966956;28;19918;-83
2021/09/05 16:41:47;;;;;;;;;;;;;;;6.77;99.46;99865.72;4967204;28;19941;-83
2021/09/05 16:44:13;;;;;;;;;;;;;;;6.85;99.33;99876.91;4965629;28;20378;-83
2021/09/05 16:46:38;;;;;;;;;;;;;;;6.86;98.63;99878.63;4966203;28;19981;-83
2021/09/05 16:49:03;;;;;;;;;;;;;;;6.83;98.38;99889.22;4966336;28;19922;-83
2021/09/05 16:51:28;;;;;;;;;;;;;;;6.81;98.89;99881.41;4966308;28;19929;-83
2021/09/05 16:53:55;;;;;;;;;;;;;;;6.82;98.53;99887.53;4949028;28;20151;-83
2021/09/05 16:56:20;;;;;;;;;;;;;;;6.76;99.10;99879.78;4965590;28;20451;-83
2021/09/05 16:58:46;;;;;;;;;;;;;;;6.78;99.19;99880.59;4965205;28;19954;-82
2021/09/05 17:01:11;;;;;;;;;;;;;;;6.76;99.50;99880.63;4965881;28;20004;-83
2021/09/05 17:03:37;;;;;;;;;;;;;;;6.71;99.66;99887.78;4966467;28;20292;-83
2021/09/05 17:06:02;;;;;;;;;;;;;;;6.82;99.57;99882.25;4966542;28;19973;-83
2021/09/05 17:08:28;;;;;;;;;;;;;;;6.75;98.96;99889.44;4966164;28;19922;-83
2021/09/05 17:10:53;;;;;;;;;;;;;;;6.86;98.89;99886.53;4965715;28;20033;-83
2021/09/05 17:13:18;;;;;;;;;;;;;;;6.84;98.46;99885.69;4965958;28;19922;-83
2021/09/05 17:15:43;;;;;;;;;;;;;;;6.84;98.59;99890.97;4947738;28;20265;-83
2021/09/05 17:18:09;;;;;;;;;;;;;;;6.84;98.23;99897.09;4965867;28;20357;-82
2021/09/05 17:20:36;;;;;;;;;;;;;;;6.78;98.60;99893.75;4965895;28;19926;-83
2021/09/05 17:23:02;;;;;;;;;;;;;;;6.73;99.58;99905.28;4964991;28;19922;-83
2021/09/05 17:25:27;;;;;;;;;;;;;;;6.77;99.80;99894.69;4965791;28;19918;-83
2021/09/05 17:27:52;;;;;;;;;;;;;;;6.85;99.13;99900.63;4966254;28;19923;-83
2021/09/05 17:30:18;;;;;;;;;;;;;;;6.85;98.36;99904.09;4947321;28;19923;-83
2021/09/05 17:32:43;;;;;;;;;;;;;;;6.85;99.00;99901.47;4947225;28;19926;-83
2021/09/05 17:35:08;;;;;;;;;;;;;;;6.86;99.53;99902.31;4965428;28;20288;-84
2021/09/05 17:37:34;;;;;;;;;;;;;;;6.85;99.57;99916.41;4948826;28;20020;-83
2021/09/05 17:39:59;;;;;;;;;;;;;;;6.85;99.58;99914.63;4948252;28;19918;-83
2021/09/05 17:42:25;;;;;;;;;;;;;;;6.85;99.07;99919.06;4965507;28;19933;-83
2021/09/05 17:44:50;;;;;;;;;;;;;;;6.95;98.62;99914.41;4947306;28;19965;-83
2021/09/05 17:47:18;;;;;;;;;;;;;;;6.83;99.31;99921.72;4965673;28;19926;-83
2021/09/05 17:49:43;;;;;;;;;;;;;;;6.87;100.00;99922.50;4964414;28;19925;-83
2021/09/05 17:52:09;;;;;;;;;;;;;;;6.96;100.00;99930.19;4948074;28;19922;-83
2021/09/05 17:54:34;;;;;;;;;;;;;;;7.08;99.80;99924.59;4965975;28;19981;-83
2021/09/05 17:56:59;;;;;;;;;;;;;;;6.96;100.00;99926.69;4965292;28;19918;-83
2021/09/05 17:59:25;;;;;;;;;;;;;;;6.94;100.00;99925.84;4963746;28;20324;-84
2021/09/05 18:01:52;;;;;;;;;;;;;;;6.99;100.00;99932.72;4965081;28;20016;-83
2021/09/05 18:04:17;;;;;;;;;;;;;;;7.01;100.00;99930.06;4965536;28;20317;-84
2021/09/05 18:06:43;;;;;;;;;;;;;;;7.01;100.00;99930.06;4965135;28;20010;-83
2021/09/05 18:09:08;;;;;;;;;;;;;;;7.07;100.00;99924.63;4965694;28;19918;-83
2021/09/05 18:11:33;;;;;;;;;;;;;;;7.03;100.00;99934.38;4964491;28;20340;-83
2021/09/05 18:13:59;;;;;;;;;;;;;;;7.09;100.00;99933.34;4963997;28;19922;-83
2021/09/05 18:16:24;;;;;;;;;;;;;;;7.14;100.00;99933.25;4947002;28;19946;-83
2021/09/05 18:18:49;;;;;;;;;;;;;;;7.09;100.00;99936.84;4965376;28;19926;-83
2021/09/05 18:21:16;;;;;;;;;;;;;;;7.08;100.00;99940.41;4948033;28;19948;-83
2021/09/05 18:23:41;;;;;;;;;;;;;;;7.18;100.00;99941.03;4947799;28;19922;-83
2021/09/05 18:26:07;;;;;;;;;;;;;;;7.05;100.00;99953.66;4964581;28;19924;-83
2021/09/05 18:28:32;;;;;;;;;;;;;;;7.15;100.00;99950.75;4963750;28;19925;-82
2021/09/05 18:30:57;;;;;;;;;;;;;;;7.07;100.00;99951.84;4965169;28;19922;-83
2021/09/05 18:33:22;;;;;;;;;;;;;;;7.17;100.00;99946.34;4963931;28;20329;-83
2021/09/05 18:35:48;;;;;;;;;;;;;;;7.16;100.00;99949.88;4964690;28;19930;-83
2021/09/05 18:38:13;;;;;;;;;;;;;;;7.21;100.00;99956.75;4964616;28;20444;-83
2021/09/05 18:40:38;;;;;;;;;;;;;;;7.20;100.00;99957.66;4964281;28;19918;-84
2021/09/05 18:43:04;;;;;;;;;;;;;;;7.14;100.00;99959.59;4964495;28;19941;-83
2021/09/05 18:45:29;;;;;;;;;;;;;;;7.16;100.00;99965.69;4963567;28;19930;-84
2021/09/05 18:47:54;;;;;;;;;;;;;;;7.13;100.00;99971.03;4947300;28;19957;-83
2021/09/05 18:50:20;;;;;;;;;;;;;;;7.20;100.00;99978.75;4964524;28;20273;-83
2021/09/05 18:52:45;;;;;;;;;;;;;;;7.12;100.00;99974.59;4964340;28;19923;-83
2021/09/05 18:55:10;;;;;;;;;;;;;;;7.14;100.00;99972.75;4946945;28;19922;-81
2021/09/05 18:57:36;;;;;;;;;;;;;;;7.24;100.00;99975.13;4947167;28;19966;-83
2021/09/05 19:00:02;;;;;;;;;;;;;;;7.24;100.00;99980.41;4963033;28;19929;-83
2021/09/05 19:02:27;;;;;;;;;;;;;;;7.19;100.00;99984.03;4964260;28;20354;-83
2021/09/05 19:04:52;;;;;;;;;;;;;;;7.19;100.00;99991.94;4964446;28;19930;-83
2021/09/05 19:07:19;;;;;;;;;;;;;;;7.27;100.00;99990.88;4964066;28;19914;-83
2021/09/05 19:09:44;;;;;;;;;;;;;;;7.26;100.00;99998.81;4964154;28;19965;-84
2021/09/05 19:12:10;;;;;;;;;;;;;;;7.21;100.00;100000.69;4963880;28;19962;-83
2021/09/05 19:14:35;;;;;;;;;;;;;;;7.22;100.00;100003.28;4962835;28;19918;-82
2021/09/05 19:17:00;;;;;;;;;;;;;;;7.25;100.00;100002.34;4964309;28;20513;-81
2021/09/05 19:19:26;;;;;;;;;;;;;;;7.16;100.00;100003.44;4964046;28;19918;-82
2021/09/05 19:21:51;;;;;;;;;;;;;;;7.12;100.00;100006.22;4963893;28;19926;-83
2021/09/05 19:24:16;;;;;;;;;;;;;;;7.16;100.00;100007.84;4946649;28;19925;-83
2021/09/05 19:26:41;;;;;;;;;;;;;;;7.14;100.00;100004.38;4964287;28;19929;-83
2021/09/05 19:29:07;;;;;;;;;;;;;;;7.20;100.00;100004.25;4962594;28;19919;-83
2021/09/05 19:31:32;;;;;;;;;;;;;;;7.18;100.00;100019.19;4945993;28;19926;-83
2021/09/05 19:33:59;;;;;;;;;;;;;;;7.20;100.00;100020.06;4963583;28;19970;-83
2021/09/05 19:36:25;;;;;;;;;;;;;;;7.24;100.00;100022.56;4963413;28;19953;-83
2021/09/05 19:38:50;;;;;;;;;;;;;;;7.23;100.00;100018.19;4947028;28;20361;-82
2021/09/05 19:41:15;;;;;;;;;;;;;;;7.19;99.89;100024.44;4963617;28;19923;-83
2021/09/05 19:43:42;;;;;;;;;;;;;;;7.20;100.00;100020.06;4962744;28;19918;-83
2021/09/05 19:46:07;;;;;;;;;;;;;;;7.07;100.00;100025.63;4946312;28;19926;-83
2021/09/05 19:48:33;;;;;;;;;;;;;;;7.07;100.00;100030.88;4963144;28;20258;-83
2021/09/05 19:50:58;;;;;;;;;;;;;;;7.09;100.00;100023.81;4963560;28;19950;-83
2021/09/05 19:53:24;;;;;;;;;;;;;;;7.16;100.00;100026.28;4946469;28;19922;-83
2021/09/05 19:55:49;;;;;;;;;;;;;;;7.16;100.00;100027.16;4962681;28;20386;-83
2021/09/05 19:58:14;;;;;;;;;;;;;;;7.12;100.00;100032.56;4963133;28;19933;-83
2021/09/05 20:00:40;;;;;;;;;;;;;;;7.08;100.00;100040.53;4961814;28;19922;-84
2021/09/05 20:03:05;;;;;;;;;;;;;;;7.09;100.00;100034.34;4962494;28;20377;-83
2021/09/05 20:05:30;;;;;;;;;;;;;;;7.06;100.00;100031.78;4962343;28;20005;-84
2021/09/05 20:07:55;;;;;;;;;;;;;;;7.16;100.00;100040.31;4962715;28;19926;-84
2021/09/05 20:10:21;;;;;;;;;;;;;;;7.22;100.00;100047.22;4962690;28;19918;-84
2021/09/05 20:12:46;;;;;;;;;;;;;;;7.16;100.00;100040.31;4962550;28;19929;-84
2021/09/05 20:15:11;;;;;;;;;;;;;;;7.19;100.00;100042.88;4960996;28;20374;-84
2021/09/05 20:17:37;;;;;;;;;;;;;;;7.16;100.00;100044.75;4962368;28;19966;-84
2021/09/05 20:20:03;;;;;;;;;;;;;;;7.20;100.00;100046.41;4962239;28;19919;-84
2021/09/05 20:22:28;;;;;;;;;;;;;;;7.19;99.59;100052.56;4962002;28;20350;-84
2021/09/05 20:24:54;;;;;;;;;;;;;;;7.05;100.00;100043.25;4945385;28;19933;-85
2021/09/05 20:27:19;;;;;;;;;;;;;;;7.19;100.00;100049.94;4962609;28;20369;-84
2021/09/05 20:29:44;;;;;;;;;;;;;;;7.06;100.00;100050.22;4943772;28;19973;-84
2021/09/05 20:32:09;;;;;;;;;;;;;;;7.08;100.00;100043.16;4962274;28;20769;-84
2021/09/05 20:34:35;;;;;;;;;;;;;;;7.13;100.00;100044.81;4962129;28;19923;-84
2021/09/05 20:37:00;;;;;;;;;;;;;;;7.13;100.00;100050.06;4962585;28;19961;-84
2021/09/05 20:39:26;;;;;;;;;;;;;;;7.10;100.00;100048.41;4961396;28;19918;-84
2021/09/05 20:41:51;;;;;;;;;;;;;;;7.11;100.00;100046.63;4962055;28;19928;-84
2021/09/05 20:44:16;;;;;;;;;;;;;;;7.18;100.00;100049.06;4944122;28;19925;-84
2021/09/05 20:46:41;;;;;;;;;;;;;;;7.09;100.00;100052.78;4962341;28;19973;-85
2021/09/05 20:49:07;;;;;;;;;;;;;;;7.24;99.69;100053.31;4961977;28;19925;-84
2021/09/05 20:51:37;;;;;;;;;;;;;;;7.15;99.62;100050.91;4962138;28;19929;-84
2021/09/05 20:54:03;;;;;;;;;;;;;;;7.19;99.23;100055.19;4962260;28;20354;-84
2021/09/05 20:56:28;;;;;;;;;;;;;;;7.16;99.59;100050.88;4961900;28;19922;-84
2021/09/05 20:58:53;;;;;;;;;;;;;;;7.06;100.00;100042.31;4960817;28;20377;-84
2021/09/05 21:01:19;;;;;;;;;;;;;;;7.14;100.00;100054.47;4962947;28;20346;-84
2021/09/05 21:03:44;;;;;;;;;;;;;;;7.07;100.00;100049.34;4962654;28;19918;-85
2021/09/05 21:06:09;;;;;;;;;;;;;;;7.08;100.00;100048.44;4962645;28;20381;-84
2021/09/05 21:08:34;;;;;;;;;;;;;;;7.19;100.00;100055.19;4947828;28;20289;-84
2021/09/05 21:11:00;;;;;;;;;;;;;;;7.19;99.04;100055.19;4948670;28;19918;-84
2021/09/05 21:13:25;;;;;;;;;;;;;;;7.07;100.00;100053.75;4966250;28;20444;-84
2021/09/05 21:15:51;;;;;;;;;;;;;;;7.12;100.00;100061.53;4965597;28;20032;-83
2021/09/05 21:18:16;;;;;;;;;;;;;;;7.09;100.00;100057.19;4966108;28;19918;-81
2021/09/05 21:20:42;;;;;;;;;;;;;;;7.13;100.00;100056.22;4966256;28;19993;-83
2021/09/05 21:23:08;;;;;;;;;;;;;;;7.09;100.00;100060.69;4965847;28;20425;-84
2021/09/05 21:25:33;;;;;;;;;;;;;;;7.09;100.00;100057.19;4965826;28;20044;-83
2021/09/05 21:27:58;;;;;;;;;;;;;;;7.13;99.93;100065.88;4966308;28;20263;-84
2021/09/05 21:30:24;;;;;;;;;;;;;;;7.13;99.51;100063.25;4964740;28;19923;-84
2021/09/05 21:32:50;;;;;;;;;;;;;;;7.02;100.00;100063.50;4966064;28;19922;-84
2021/09/05 21:35:15;;;;;;;;;;;;;;;7.04;100.00;100070.47;4965724;28;19926;-83
2021/09/05 21:37:40;;;;;;;;;;;;;;;7.13;100.00;100065.88;4948854;28;20339;-84
2021/09/05 21:40:06;;;;;;;;;;;;;;;7.09;99.49;100065.97;4965845;28;19918;-83
2021/09/05 21:42:32;;;;;;;;;;;;;;;7.06;99.59;100063.41;4965458;28;20440;-84
2021/09/05 21:44:57;;;;;;;;;;;;;;;6.98;99.76;100072.41;4964001;28;20387;-83
2021/09/05 21:47:22;;;;;;;;;;;;;;;7.00;100.00;100079.34;4965598;28;19922;-83
2021/09/05 21:49:47;;;;;;;;;;;;;;;7.05;99.87;100074.88;4948150;28;19941;-84
2021/09/05 21:52:13;;;;;;;;;;;;;;;7.07;99.52;100072.19;4965760;28;20921;-83
2021/09/05 21:54:38;;;;;;;;;;;;;;;7.09;98.46;100070.38;4965334;28;19925;-83
2021/09/05 21:57:03;;;;;;;;;;;;;;;6.96;99.78;100074.22;4965276;28;20009;-83
2021/09/05 21:59:29;;;;;;;;;;;;;;;7.00;99.62;100078.50;4946899;28;19926;-83
2021/09/05 22:01:54;;;;;;;;;;;;;;;7.07;99.15;100075.69;4965478;28;19933;-83
2021/09/05 22:04:19;;;;;;;;;;;;;;;7.08;98.37;100077.44;4965534;28;20444;-83
2021/09/05 22:06:44;;;;;;;;;;;;;;;6.93;99.16;100082.19;4965145;28;19927;-83
2021/09/05 22:09:10;;;;;;;;;;;;;;;6.99;99.43;100079.38;4965007;28;19918;-83
2021/09/05 22:11:35;;;;;;;;;;;;;;;6.94;99.66;100073.38;4965528;28;20007;-83
2021/09/05 22:14:00;;;;;;;;;;;;;;;6.92;99.33;100073.41;4964225;28;20004;-83
2021/09/05 22:16:26;;;;;;;;;;;;;;;7.04;98.42;100078.38;4965128;28;19940;-83
2021/09/05 22:18:51;;;;;;;;;;;;;;;7.01;98.20;100082.88;4964250;28;19922;-83
2021/09/05 22:21:16;;;;;;;;;;;;;;;6.92;98.33;100081.31;4964792;28;20288;-83
2021/09/05 22:23:41;;;;;;;;;;;;;;;6.87;99.19;100086.66;4947862;28;19920;-83
2021/09/05 22:26:07;;;;;;;;;;;;;;;6.82;99.65;100085.06;4965209;28;19926;-83
2021/09/05 22:28:32;;;;;;;;;;;;;;;6.87;99.12;100086.66;4964013;28;20017;-83
2021/09/05 22:30:57;;;;;;;;;;;;;;;6.98;98.27;100089.06;4964264;28;20362;-83
2021/09/05 22:33:22;;;;;;;;;;;;;;;6.95;98.16;100081.22;4965184;28;19949;-83
2021/09/05 22:35:48;;;;;;;;;;;;;;;6.81;98.82;100086.84;4964812;28;19918;-83
2021/09/05 22:38:13;;;;;;;;;;;;;;;6.94;98.46;100092.69;4964470;28;20476;-83
2021/09/05 22:40:38;;;;;;;;;;;;;;;6.91;98.23;100096.25;4964216;28;19962;-83
2021/09/05 22:43:04;;;;;;;;;;;;;;;6.87;97.95;100091.09;4965032;28;19933;-83
2021/09/05 22:45:29;;;;;;;;;;;;;;;6.95;97.71;100094.41;4963162;28;19960;-84
2021/09/05 22:47:54;;;;;;;;;;;;;;;6.87;97.92;100094.56;4947055;28;19933;-84
2021/09/05 22:50:19;;;;;;;;;;;;;;;6.88;98.40;100098.09;4964380;28;19922;-83
2021/09/05 22:52:45;;;;;;;;;;;;;;;6.79;99.32;100096.53;4964767;28;19922;-83
2021/09/05 22:55:10;;;;;;;;;;;;;;;6.87;98.52;100091.09;4964625;28;19988;-83
2021/09/05 22:57:35;;;;;;;;;;;;;;;6.83;98.67;100105.22;4963067;28;19919;-83
2021/09/05 23:00:01;;;;;;;;;;;;;;;6.89;97.86;100094.53;4962760;28;20424;-82
2021/09/05 23:02:26;;;;;;;;;;;;;;;6.84;97.92;100101.69;4964278;28;20278;-82
2021/09/05 23:04:51;;;;;;;;;;;;;;;6.90;97.71;100094.50;4964167;28;19919;-82
2021/09/05 23:07:16;;;;;;;;;;;;;;;6.76;98.22;100096.59;4963900;28;20271;-82
2021/09/05 23:09:42;;;;;;;;;;;;;;;6.77;98.66;100098.34;4963551;28;19918;-82
2021/09/05 23:12:07;;;;;;;;;;;;;;;6.86;98.71;100105.16;4963718;28;19954;-82
2021/09/05 23:14:33;;;;;;;;;;;;;;;6.79;98.81;100100.94;4962726;28;20000;-82
